Time;durP1;ratioP1;P1;durP2;ratioP2;P2;SDS_P1;SDS_P2;PMS_P1;PMS_P2;Temp;Humidity;BMP_temperature;BMP_pressure;BME280_temperature;BME280_humidity;BME280_pressure;Samples;Min_cycle;Max_cycle;Signal;HPM_P1;HPM_P2
2021/05/13 00:00:50;;;;;;;12.15;5.57;;;9.00;93.90;;;;;;5042096;28;20033;-69
2021/05/13 00:03:15;;;;;;;13.20;5.18;;;9.00;93.80;;;;;;5047781;28;20036;-69
2021/05/13 00:05:41;;;;;;;11.13;5.75;;;8.90;93.70;;;;;;5049217;28;20466;-69
2021/05/13 00:08:07;;;;;;;10.32;5.05;;;8.80;93.70;;;;;;5051094;28;20039;-69
2021/05/13 00:10:33;;;;;;;12.85;5.57;;;8.80;93.80;;;;;;5045645;28;20140;-69
2021/05/13 00:13:00;;;;;;;13.07;5.13;;;8.80;93.60;;;;;;5050534;28;20033;-69
2021/05/13 00:15:33;;;;;;;9.90;4.93;;;8.80;93.50;;;;;;5048201;28;20148;-69
2021/05/13 00:17:58;;;;;;;11.95;5.22;;;8.80;93.50;;;;;;5051417;28;20040;-69
2021/05/13 00:20:30;;;;;;;10.60;5.20;;;8.70;93.70;;;;;;5050023;28;20033;-69
2021/05/13 00:22:58;;;;;;;11.10;5.38;;;8.70;93.50;;;;;;5050312;28;20033;-69
2021/05/13 00:25:25;;;;;;;11.77;5.03;;;8.70;93.60;;;;;;5048338;28;20119;-69
2021/05/13 00:27:51;;;;;;;13.02;6.05;;;8.70;93.60;;;;;;5049979;28;20094;-69
2021/05/13 00:30:17;;;;;;;12.38;5.88;;;8.70;93.60;;;;;;5048735;28;20033;-69
2021/05/13 00:32:44;;;;;;;14.70;6.65;;;8.60;93.90;;;;;;5049252;28;20033;-70
2021/05/13 00:35:14;;;;;;;13.02;6.80;;;8.50;94.20;;;;;;5051051;28;20416;-69
2021/05/13 00:37:41;;;;;;;14.02;6.47;;;8.20;94.60;;;;;;5050996;28;20140;-69
2021/05/13 00:40:09;;;;;;;10.05;5.82;;;8.10;94.70;;;;;;5049555;28;20053;-69
2021/05/13 00:42:35;;;;;;;12.60;5.20;;;8.10;94.60;;;;;;5044176;28;20029;-69
2021/05/13 00:45:01;;;;;;;14.55;5.90;;;8.00;94.80;;;;;;5047739;28;20041;-69
2021/05/13 00:47:28;;;;;;;14.75;5.75;;;7.90;95.10;;;;;;5049674;28;20032;-69
2021/05/13 00:49:54;;;;;;;9.60;4.90;;;7.80;95.30;;;;;;5050145;28;20260;-69
2021/05/13 00:52:22;;;;;;;10.68;5.28;;;7.80;95.20;;;;;;5043522;28;20040;-69
2021/05/13 00:54:48;;;;;;;13.68;5.68;;;7.80;95.20;;;;;;5049679;28;20055;-69
2021/05/13 00:57:14;;;;;;;12.18;5.35;;;7.60;95.80;;;;;;5049609;28;20076;-69
2021/05/13 00:59:44;;;;;;;13.82;6.50;;;7.60;96.00;;;;;;5045937;28;20098;-69
2021/05/13 01:02:10;;;;;;;13.93;6.63;;;7.50;96.00;;;;;;5046510;28;20095;-69
2021/05/13 01:04:36;;;;;;;14.82;7.15;;;7.60;96.00;;;;;;5048350;28;20061;-68
2021/05/13 01:07:02;;;;;;;20.13;7.93;;;7.60;95.80;;;;;;5048997;28;20060;-68
2021/05/13 01:09:31;;;;;;;20.90;6.85;;;7.60;96.30;;;;;;5048460;28;20060;-68
2021/05/13 01:12:03;;;;;;;12.68;5.85;;;7.60;96.30;;;;;;5049262;28;20091;-68
2021/05/13 01:14:39;;;;;;;18.83;7.63;;;7.60;95.90;;;;;;5048519;28;20033;-68
2021/05/13 01:19:46;;;;;;;18.55;7.53;;;7.60;96.00;;;;;;5048511;28;20044;-68
2021/05/13 01:22:13;;;;;;;18.10;6.47;;;7.50;96.30;;;;;;5048845;28;20040;-68
2021/05/13 01:24:39;;;;;;;17.25;5.95;;;7.50;96.20;;;;;;5045169;28;20041;-68
2021/05/13 01:27:05;;;;;;;13.68;6.47;;;7.40;96.00;;;;;;5049246;28;20044;-68
2021/05/13 01:29:31;;;;;;;14.15;6.03;;;7.50;96.00;;;;;;5048110;28;20059;-68
2021/05/13 01:31:56;;;;;;;12.85;6.35;;;7.60;95.90;;;;;;5047918;28;20044;-68
2021/05/13 01:34:23;;;;;;;17.33;6.40;;;7.70;95.80;;;;;;5044640;28;20033;-69
2021/05/13 01:36:49;;;;;;;16.65;8.27;;;7.70;95.50;;;;;;5048153;28;20041;-69
2021/05/13 01:39:15;;;;;;;26.23;8.93;;;7.80;95.90;;;;;;5048380;28;20148;-68
2021/05/13 01:41:42;;;;;;;18.60;8.20;;;7.80;96.50;;;;;;5047984;28;20115;-69
2021/05/13 01:44:09;;;;;;;21.33;8.77;;;7.80;96.40;;;;;;5047508;28;20041;-68
2021/05/13 01:46:36;;;;;;;17.63;7.78;;;7.90;96.30;;;;;;5046814;28;20037;-69
2021/05/13 01:49:03;;;;;;;24.30;10.05;;;8.00;96.00;;;;;;5049269;28;20047;-69
2021/05/13 01:51:29;;;;;;;22.80;9.07;;;8.00;96.40;;;;;;5045760;28;20041;-68
2021/05/13 01:53:55;;;;;;;18.73;9.35;;;8.00;96.40;;;;;;5049558;28;20368;-68
2021/05/13 01:56:20;;;;;;;13.98;8.43;;;8.10;96.50;;;;;;5048651;28;20095;-68
2021/05/13 01:58:46;;;;;;;19.67;9.07;;;8.10;96.10;;;;;;5046532;28;20087;-68
2021/05/13 02:01:14;;;;;;;19.23;9.07;;;8.20;95.90;;;;;;5047804;28;20037;-68
2021/05/13 02:03:42;;;;;;;18.15;8.75;;;8.20;96.00;;;;;;5052695;28;20045;-69
2021/05/13 02:06:08;;;;;;;24.45;10.32;;;8.20;96.20;;;;;;5048076;28;20734;-69
2021/05/13 02:08:34;;;;;;;17.85;8.70;;;8.20;96.20;;;;;;5045652;28;20123;-68
2021/05/13 02:11:00;;;;;;;15.98;7.88;;;8.10;96.10;;;;;;5044261;28;20080;-68
2021/05/13 02:13:26;;;;;;;20.63;8.68;;;8.10;96.00;;;;;;5047568;28;20178;-69
2021/05/13 02:15:52;;;;;;;22.38;9.93;;;8.10;96.10;;;;;;5043502;28;20540;-68
2021/05/13 02:18:20;;;;;;;19.98;9.15;;;8.10;96.10;;;;;;5050734;28;20037;-68
2021/05/13 02:20:47;;;;;;;19.35;10.10;;;8.10;96.30;;;;;;5052344;28;20094;-69
2021/05/13 02:23:12;;;;;;;18.67;9.15;;;8.10;96.30;;;;;;5051069;28;20048;-69
2021/05/13 02:25:39;;;;;;;19.50;10.30;;;8.20;96.20;;;;;;5049317;28;20081;-68
2021/05/13 02:28:05;;;;;;;21.10;10.27;;;8.20;96.40;;;;;;5052133;28;20558;-68
2021/05/13 02:30:31;;;;;;;19.90;9.55;;;8.20;96.40;;;;;;5051057;28;20072;-69
2021/05/13 02:32:57;;;;;;;19.92;9.80;;;8.20;96.40;;;;;;5051411;28;20455;-68
2021/05/13 02:35:23;;;;;;;15.95;9.52;;;8.20;96.20;;;;;;5052079;28;20091;-69
2021/05/13 02:37:49;;;;;;;21.65;10.82;;;8.20;96.20;;;;;;5050573;28;20037;-69
2021/05/13 02:40:16;;;;;;;23.23;9.65;;;8.20;96.10;;;;;;5049196;28;20041;-68
2021/05/13 02:42:43;;;;;;;21.25;10.75;;;8.20;96.20;;;;;;5049075;28;20038;-68
2021/05/13 02:45:10;;;;;;;21.38;10.40;;;8.10;96.50;;;;;;5048319;28;20041;-68
2021/05/13 02:47:36;;;;;;;22.35;10.07;;;8.20;96.40;;;;;;5051659;28;20164;-68
2021/05/13 02:50:04;;;;;;;17.15;9.20;;;8.20;96.50;;;;;;5050827;28;20112;-68
2021/05/13 02:52:30;;;;;;;21.92;10.55;;;8.20;96.40;;;;;;5037198;28;20479;-68
2021/05/13 02:54:56;;;;;;;24.85;10.30;;;8.20;96.30;;;;;;5048954;28;20045;-68
2021/05/13 02:57:23;;;;;;;18.52;10.07;;;8.20;96.20;;;;;;5051513;28;20069;-68
2021/05/13 02:59:53;;;;;;;19.35;8.93;;;8.30;96.10;;;;;;5050075;28;20489;-68
2021/05/13 03:02:19;;;;;;;18.48;9.68;;;8.30;96.20;;;;;;5049920;28;20056;-68
2021/05/13 03:04:45;;;;;;;20.35;10.07;;;8.30;96.40;;;;;;5051591;28;20406;-69
2021/05/13 03:07:12;;;;;;;18.73;10.27;;;8.30;96.50;;;;;;5050158;28;20030;-68
2021/05/13 03:09:42;;;;;;;22.73;10.60;;;8.30;96.60;;;;;;5051109;28;20472;-68
2021/05/13 03:12:09;;;;;;;22.17;10.20;;;8.30;96.60;;;;;;5050743;28;20049;-68
2021/05/13 03:14:36;;;;;;;22.50;10.57;;;8.30;96.50;;;;;;5049241;28;20083;-68
2021/05/13 03:17:02;;;;;;;17.10;9.50;;;8.40;96.60;;;;;;5050450;28;20125;-68
2021/05/13 03:19:45;;;;;;;18.75;9.57;;;8.40;96.50;;;;;;5051422;28;20111;-68
2021/05/13 03:22:15;;;;;;;21.60;10.70;;;8.40;96.50;;;;;;5047030;28;20033;-68
2021/05/13 03:24:58;;;;;;;16.88;9.57;;;8.30;96.60;;;;;;5051056;28;20040;-69
2021/05/13 03:29:50;;;;;;;14.93;9.00;;;8.30;96.40;;;;;;5050838;28;20037;-68
2021/05/13 03:32:15;;;;;;;15.82;9.10;;;8.30;96.30;;;;;;5049746;28;20040;-68
2021/05/13 03:34:41;;;;;;;15.68;8.75;;;8.30;96.20;;;;;;5051058;28;20455;-68
2021/05/13 03:37:07;;;;;;;13.88;8.27;;;8.30;96.10;;;;;;5052632;28;20459;-68
2021/05/13 03:39:32;;;;;;;14.95;8.88;;;8.40;95.90;;;;;;5050378;28;20399;-69
2021/05/13 03:41:58;;;;;;;18.45;8.93;;;8.40;95.60;;;;;;5049929;28;20044;-68
2021/05/13 03:44:24;;;;;;;15.00;7.68;;;8.50;95.50;;;;;;5051409;28;20053;-68
2021/05/13 03:46:49;;;;;;;21.23;9.70;;;8.40;95.60;;;;;;5047061;28;20345;-68
2021/05/13 03:49:15;;;;;;;17.35;9.52;;;8.40;95.30;;;;;;5047546;28;20379;-68
2021/05/13 03:51:41;;;;;;;22.42;9.07;;;8.40;95.40;;;;;;5047736;28;20036;-68
2021/05/13 03:54:07;;;;;;;17.58;9.90;;;8.40;95.30;;;;;;5050454;28;20044;-68
2021/05/13 03:56:33;;;;;;;23.00;10.10;;;8.40;95.50;;;;;;5050777;28;20095;-68
2021/05/13 03:59:05;;;;;;;19.45;9.65;;;8.40;95.70;;;;;;5050416;28;20044;-67
2021/05/13 04:01:45;;;;;;;22.10;9.80;;;8.40;95.90;;;;;;5047618;28;20335;-68
2021/05/13 04:04:11;;;;;;;22.40;9.60;;;8.30;96.00;;;;;;5060354;28;20118;-68
2021/05/13 04:06:40;;;;;;;16.77;9.63;;;8.30;96.00;;;;;;5045449;28;20064;-68
2021/05/13 04:09:10;;;;;;;13.55;8.15;;;8.30;96.00;;;;;;5049960;28;20045;-68
2021/05/13 04:11:37;;;;;;;17.25;9.18;;;8.30;95.70;;;;;;5049214;28;20044;-68
2021/05/13 04:14:08;;;;;;;15.50;8.00;;;8.40;95.40;;;;;;5049599;28;20065;-68
2021/05/13 04:16:36;;;;;;;13.98;8.15;;;8.40;95.10;;;;;;5048384;28;20123;-68
2021/05/13 04:19:05;;;;;;;13.25;8.13;;;8.40;95.00;;;;;;5050359;28;20071;-68
2021/05/13 04:21:31;;;;;;;17.15;8.73;;;8.30;95.20;;;;;;5047989;28;20451;-68
2021/05/13 04:23:58;;;;;;;17.95;8.98;;;8.40;95.30;;;;;;5055835;22;20132;-69
2021/05/13 04:26:24;;;;;;;13.50;8.85;;;8.30;95.30;;;;;;5024704;28;20394;-69
2021/05/13 04:28:50;;;;;;;14.82;8.48;;;8.30;95.50;;;;;;5031069;28;20468;-69
2021/05/13 04:31:16;;;;;;;15.10;8.57;;;8.30;95.50;;;;;;5023116;28;20124;-69
2021/05/13 04:33:42;;;;;;;14.48;7.93;;;8.40;95.10;;;;;;5027453;28;20513;-69
2021/05/13 04:36:08;;;;;;;16.75;9.05;;;8.40;94.90;;;;;;5029380;28;20037;-69
2021/05/13 04:38:41;;;;;;;15.07;8.48;;;8.50;95.00;;;;;;5027707;28;20050;-69
2021/05/13 04:41:07;;;;;;;20.42;9.05;;;8.50;95.00;;;;;;5028418;28;20041;-69
2021/05/13 04:43:36;;;;;;;15.48;9.25;;;8.50;95.00;;;;;;5020250;28;20135;-67
2021/05/13 04:46:02;;;;;;;13.35;8.35;;;8.50;95.00;;;;;;5024694;28;20045;-69
2021/05/13 04:48:39;;;;;;;12.50;8.18;;;8.60;94.90;;;;;;5027295;28;20111;-69
2021/05/13 04:51:05;;;;;;;19.30;8.88;;;8.60;94.80;;;;;;5029929;28;20096;-69
2021/05/13 04:53:31;;;;;;;17.42;9.50;;;8.70;94.80;;;;;;5023248;28;20663;-69
2021/05/13 04:55:56;;;;;;;14.27;9.02;;;8.70;94.80;;;;;;5030099;28;20075;-69
2021/05/13 04:58:23;;;;;;;15.02;9.10;;;8.70;95.00;;;;;;5022823;28;20091;-69
2021/05/13 05:00:49;;;;;;;15.27;9.05;;;8.80;95.00;;;;;;5024579;28;20037;-69
2021/05/13 05:03:15;;;;;;;14.63;8.55;;;9.00;94.90;;;;;;5029023;28;20041;-69
2021/05/13 05:05:41;;;;;;;13.02;9.02;;;9.20;94.70;;;;;;5025298;28;20045;-69
2021/05/13 05:08:07;;;;;;;16.70;8.82;;;9.30;94.40;;;;;;5020747;28;20509;-69
2021/05/13 05:10:33;;;;;;;14.18;7.95;;;9.30;94.20;;;;;;5027888;28;20034;-69
2021/05/13 05:12:58;;;;;;;15.70;9.00;;;9.40;94.10;;;;;;5029697;28;20033;-69
2021/05/13 05:15:24;;;;;;;15.43;8.50;;;9.50;93.90;;;;;;5039156;28;20376;-69
2021/05/13 05:17:50;;;;;;;15.35;9.18;;;9.60;94.10;;;;;;5027087;28;20569;-69
2021/05/13 05:20:16;;;;;;;18.23;9.07;;;9.70;94.00;;;;;;5026495;28;20048;-69
2021/05/13 05:22:41;;;;;;;16.65;8.85;;;9.70;94.00;;;;;;5028728;28;20069;-69
2021/05/13 05:25:07;;;;;;;19.38;8.90;;;9.70;93.50;;;;;;5028011;28;20116;-69
2021/05/13 05:27:34;;;;;;;16.10;8.80;;;9.80;93.70;;;;;;5018382;28;20034;-69
2021/05/13 05:30:00;;;;;;;15.73;7.88;;;9.90;93.70;;;;;;5017728;28;20486;-69
2021/05/13 05:32:25;;;;;;;13.88;7.05;;;10.10;93.50;;;;;;5030004;28;20045;-69
2021/05/13 05:34:51;;;;;;;15.50;7.60;;;10.20;93.00;;;;;;5028498;28;20037;-69
2021/05/13 05:37:17;;;;;;;13.07;8.15;;;10.20;93.20;;;;;;5026960;28;20064;-69
2021/05/13 05:39:43;;;;;;;17.48;8.00;;;10.30;92.90;;;;;;5023115;28;20402;-69
2021/05/13 05:42:11;;;;;;;14.18;7.63;;;10.40;93.00;;;;;;5026724;28;20041;-69
2021/05/13 05:44:36;;;;;;;13.95;7.07;;;10.60;92.70;;;;;;5018026;28;20068;-69
2021/05/13 05:47:02;;;;;;;14.05;7.55;;;10.70;91.80;;;;;;5024675;28;20120;-69
2021/05/13 05:49:33;;;;;;;12.60;7.07;;;10.90;91.80;;;;;;5026522;28;20536;-69
2021/05/13 05:52:00;;;;;;;11.15;6.47;;;11.90;91.80;;;;;;5028391;28;20564;-69
2021/05/13 05:54:29;;;;;;;11.05;6.03;;;13.40;85.90;;;;;;5025583;28;20038;-69
2021/05/13 05:56:56;;;;;;;8.90;4.50;;;14.60;81.60;;;;;;5015868;28;20112;-69
2021/05/13 05:59:22;;;;;;;6.85;4.40;;;14.70;74.30;;;;;;5032015;28;20049;-69
2021/05/13 06:01:48;;;;;;;7.75;3.88;;;15.70;76.10;;;;;;5028981;28;20041;-67
2021/05/13 06:04:14;;;;;;;7.78;3.72;;;16.10;76.40;;;;;;5020610;28;20041;-67
2021/05/13 06:06:39;;;;;;;8.02;3.35;;;16.20;70.90;;;;;;5029814;28;20048;-67
2021/05/13 06:09:05;;;;;;;6.78;3.40;;;16.30;68.20;;;;;;5022621;28;20037;-67
2021/05/13 06:11:34;;;;;;;8.00;2.88;;;16.10;67.10;;;;;;5030370;28;20065;-67
2021/05/13 06:14:00;;;;;;;8.02;3.47;;;16.90;67.60;;;;;;5031106;28;20669;-67
2021/05/13 06:16:29;;;;;;;5.85;2.72;;;17.20;65.20;;;;;;5032060;28;20486;-67
2021/05/13 06:19:00;;;;;;;6.13;2.70;;;18.50;66.70;;;;;;5025872;28;20049;-68
2021/05/13 06:21:26;;;;;;;7.82;3.13;;;18.00;59.00;;;;;;5031061;28;20052;-68
2021/05/13 06:23:59;;;;;;;6.32;2.67;;;17.80;61.10;;;;;;5030700;28;20057;-68
2021/05/13 06:26:29;;;;;;;5.40;2.83;;;17.90;59.20;;;;;;5023025;28;20119;-69
2021/05/13 06:28:55;;;;;;;7.03;3.15;;;18.70;60.00;;;;;;5026834;28;20067;-68
2021/05/13 06:31:21;;;;;;;9.25;3.60;;;19.20;56.30;;;;;;5030415;28;20047;-69
2021/05/13 06:33:47;;;;;;;7.80;2.70;;;19.60;58.50;;;;;;5031023;28;20048;-68
2021/05/13 06:36:13;;;;;;;6.82;2.33;;;20.00;58.50;;;;;;5033814;28;20033;-68
2021/05/13 06:38:40;;;;;;;7.72;2.63;;;20.40;57.10;;;;;;5036752;28;20046;-68
2021/05/13 06:41:10;;;;;;;5.70;2.17;;;20.40;56.10;;;;;;5034730;28;20403;-68
2021/05/13 06:43:37;;;;;;;4.40;2.20;;;20.30;52.20;;;;;;5026912;28;20475;-68
2021/05/13 06:46:04;;;;;;;5.25;2.38;;;20.40;53.00;;;;;;5014338;28;20069;-69
2021/05/13 06:48:31;;;;;;;5.80;2.40;;;20.60;53.80;;;;;;5020188;28;20044;-69
2021/05/13 06:51:02;;;;;;;8.33;2.60;;;19.80;51.50;;;;;;5032360;28;20148;-69
2021/05/13 06:53:29;;;;;;;5.57;2.60;;;19.80;54.60;;;;;;5031426;28;20040;-69
2021/05/13 06:56:00;;;;;;;5.57;2.65;;;20.90;54.70;;;;;;5030869;28;20671;-69
2021/05/13 06:58:26;;;;;;;5.60;2.35;;;21.30;54.10;;;;;;5024845;28;20152;-69
2021/05/13 07:00:53;;;;;;;5.13;2.10;;;21.00;54.20;;;;;;5021458;28;20483;-69
2021/05/13 07:03:20;;;;;;;6.60;2.50;;;18.70;53.20;;;;;;5020432;28;20034;-69
2021/05/13 07:05:47;;;;;;;5.75;2.58;;;18.00;56.50;;;;;;5030744;28;20398;-69
2021/05/13 07:08:12;;;;;;;3.80;2.08;;;17.30;58.00;;;;;;5025567;28;20129;-69
2021/05/13 07:10:38;;;;;;;7.20;3.00;;;16.20;60.00;;;;;;5019052;28;20049;-69
2021/05/13 07:13:04;;;;;;;5.97;3.15;;;15.60;63.30;;;;;;5031078;28;20490;-68
2021/05/13 07:15:31;;;;;;;6.13;3.30;;;15.20;66.70;;;;;;5031639;28;20523;-69
2021/05/13 07:17:57;;;;;;;5.60;2.75;;;15.30;68.30;;;;;;5031716;28;20033;-69
2021/05/13 07:20:23;;;;;;;5.57;3.00;;;15.20;68.20;;;;;;5031310;28;20038;-69
2021/05/13 07:22:50;;;;;;;3.80;2.60;;;15.80;68.40;;;;;;5029258;28;20372;-69
2021/05/13 07:25:16;;;;;;;6.10;3.40;;;16.10;67.20;;;;;;5032507;28;20116;-68
2021/05/13 07:27:43;;;;;;;6.60;3.42;;;16.30;65.90;;;;;;5032124;28;20442;-68
2021/05/13 07:30:10;;;;;;;5.40;2.88;;;16.30;65.40;;;;;;5032149;28;20116;-68
2021/05/13 07:32:36;;;;;;;3.53;2.45;;;16.40;65.60;;;;;;5028531;28;20141;-69
2021/05/13 07:35:02;;;;;;;6.72;2.85;;;16.70;66.40;;;;;;5012682;28;20138;-69
2021/05/13 07:37:27;;;;;;;6.10;2.78;;;16.10;63.40;;;;;;5030863;28;20042;-69
2021/05/13 07:39:53;;;;;;;6.53;2.53;;;16.10;63.90;;;;;;5021892;28;20502;-69
2021/05/13 07:42:19;;;;;;;5.88;2.50;;;16.50;64.90;;;;;;5019294;28;20048;-69
2021/05/13 07:44:44;;;;;;;4.22;2.17;;;16.40;63.80;;;;;;5023034;28;20082;-69
2021/05/13 07:47:11;;;;;;;4.93;2.80;;;16.00;65.70;;;;;;5027005;28;20572;-69
2021/05/13 07:49:37;;;;;;;6.75;2.75;;;16.00;65.80;;;;;;5024513;28;20364;-69
2021/05/13 07:52:03;;;;;;;4.70;2.38;;;16.60;66.10;;;;;;5031673;28;20044;-69
2021/05/13 07:54:29;;;;;;;5.32;3.08;;;16.50;64.10;;;;;;5027186;28;20041;-69
2021/05/13 07:56:54;;;;;;;6.55;3.35;;;15.70;64.40;;;;;;5015652;28;20050;-69
2021/05/13 07:59:20;;;;;;;7.72;3.55;;;15.50;65.30;;;;;;5012265;28;20049;-69
2021/05/13 08:01:46;;;;;;;7.47;3.95;;;15.40;65.90;;;;;;5027459;28;20099;-69
2021/05/13 08:04:12;;;;;;;4.38;2.88;;;15.30;67.90;;;;;;5024658;28;20037;-69
2021/05/13 08:06:37;;;;;;;5.30;2.80;;;15.40;67.40;;;;;;5025850;28;20427;-69
2021/05/13 08:09:03;;;;;;;5.80;2.83;;;14.90;66.40;;;;;;5023158;28;20124;-68
2021/05/13 08:11:29;;;;;;;7.65;3.40;;;15.50;67.50;;;;;;5016671;28;20087;-68
2021/05/13 08:13:54;;;;;;;5.13;3.20;;;15.50;67.00;;;;;;5027685;28;20230;-68
2021/05/13 08:16:20;;;;;;;5.35;3.42;;;15.50;67.50;;;;;;5026464;28;20029;-68
2021/05/13 08:18:46;;;;;;;9.93;4.75;;;15.50;66.90;;;;;;5023354;28;20106;-68
2021/05/13 08:21:12;;;;;;;6.22;3.67;;;15.10;67.70;;;;;;5028818;28;20505;-68
2021/05/13 08:23:37;;;;;;;6.43;3.78;;;15.20;70.00;;;;;;5029818;28;20069;-68
2021/05/13 08:26:03;;;;;;;6.50;4.00;;;14.90;69.70;;;;;;5030666;28;20548;-68
2021/05/13 08:28:29;;;;;;;6.90;3.40;;;15.20;70.00;;;;;;5030331;28;20043;-68
2021/05/13 08:30:54;;;;;;;7.65;3.75;;;15.10;69.30;;;;;;5030482;28;20037;-68
2021/05/13 08:33:20;;;;;;;5.65;3.13;;;14.90;68.40;;;;;;5028311;28;20033;-68
2021/05/13 08:35:45;;;;;;;8.45;3.90;;;15.40;70.20;;;;;;5019874;28;20107;-69
2021/05/13 08:38:11;;;;;;;7.15;3.70;;;15.80;69.20;;;;;;5021276;28;20044;-68
2021/05/13 08:40:36;;;;;;;8.73;4.47;;;15.90;68.30;;;;;;5027842;28;20458;-69
2021/05/13 08:43:02;;;;;;;8.15;5.05;;;16.20;68.90;;;;;;5030888;28;20045;-69
2021/05/13 08:45:32;;;;;;;9.93;4.88;;;16.50;69.30;;;;;;5029833;28;20056;-69
2021/05/13 08:48:01;;;;;;;9.75;4.20;;;16.10;69.10;;;;;;5031503;28;20041;-68
2021/05/13 08:50:27;;;;;;;7.90;4.30;;;15.80;70.10;;;;;;5022191;28;20100;-68
2021/05/13 08:52:55;;;;;;;8.70;3.28;;;15.80;69.70;;;;;;5023788;28;20029;-69
2021/05/13 08:55:21;;;;;;;10.40;3.92;;;16.20;69.00;;;;;;5029772;28;20198;-69
2021/05/13 08:57:47;;;;;;;8.38;3.78;;;15.80;66.00;;;;;;5024618;28;20049;-69
2021/05/13 09:00:13;;;;;;;8.90;3.70;;;15.30;67.30;;;;;;5021952;28;20650;-69
2021/05/13 09:02:51;;;;;;;9.02;3.35;;;15.70;68.70;;;;;;5023457;28;20049;-68
2021/05/13 09:05:17;;;;;;;5.22;2.70;;;15.50;66.40;;;;;;5029798;28;20045;-68
2021/05/13 09:07:43;;;;;;;8.07;2.80;;;15.80;67.80;;;;;;5028654;28;20044;-69
2021/05/13 09:10:14;;;;;;;8.20;2.40;;;15.80;64.60;;;;;;5022200;28;20403;-69
2021/05/13 09:12:51;;;;;;;7.23;2.27;;;16.10;66.70;;;;;;5023942;28;20044;-69
2021/05/13 09:15:22;;;;;;;6.18;2.30;;;15.90;65.30;;;;;;5010983;28;20046;-69
2021/05/13 09:17:49;;;;;;;6.65;2.35;;;16.30;64.90;;;;;;5021129;28;20044;-69
2021/05/13 09:20:29;;;;;;;5.50;2.60;;;16.50;65.00;;;;;;5025033;28;20117;-69
2021/05/13 09:23:26;;;;;;;5.25;2.20;;;16.20;63.60;;;;;;5027618;28;20080;-69
2021/05/13 09:26:13;;;;;;;5.72;1.90;;;16.10;63.90;;;;;;5014927;28;20045;-69
2021/05/13 09:28:41;;;;;;;4.13;1.67;;;15.90;59.60;;;;;;5027031;28;20041;-69
2021/05/13 09:31:07;;;;;;;5.07;1.45;;;16.00;62.60;;;;;;5021308;28;20395;-69
2021/05/13 09:33:37;;;;;;;4.50;1.30;;;16.10;58.20;;;;;;5028469;28;20029;-69
2021/05/13 09:36:21;;;;;;;6.03;1.98;;;16.00;61.70;;;;;;5027428;28;20055;-69
2021/05/13 09:38:48;;;;;;;4.57;1.40;;;16.00;61.70;;;;;;5012957;28;20046;-69
2021/05/13 09:41:27;;;;;;;3.92;1.40;;;16.10;60.20;;;;;;5025624;28;20030;-69
2021/05/13 09:43:53;;;;;;;7.32;1.55;;;16.30;56.90;;;;;;5025208;28;20117;-69
2021/05/13 09:46:31;;;;;;;5.45;1.60;;;16.30;57.70;;;;;;5017192;28;20112;-69
2021/05/13 09:48:58;;;;;;;4.00;1.55;;;16.30;57.10;;;;;;5029524;28;20041;-69
2021/05/13 09:51:37;;;;;;;5.78;1.70;;;16.00;57.30;;;;;;5027493;28;20456;-69
2021/05/13 09:54:03;;;;;;;4.40;1.20;;;15.90;60.60;;;;;;5025239;28;20037;-69
2021/05/13 09:56:30;;;;;;;3.65;0.98;;;16.30;56.90;;;;;;5027137;28;20458;-69
2021/05/13 09:58:57;;;;;;;7.20;1.70;;;16.50;56.10;;;;;;5026170;28;20038;-69
2021/05/13 10:01:34;;;;;;;4.38;1.30;;;16.80;59.90;;;;;;5029031;28;20038;-68
2021/05/13 10:04:01;;;;;;;6.95;1.63;;;17.00;55.20;;;;;;5021195;28;20080;-69
2021/05/13 10:06:27;;;;;;;4.45;1.40;;;17.10;58.90;;;;;;5029113;28;20044;-69
2021/05/13 10:08:52;;;;;;;3.95;1.30;;;17.00;53.30;;;;;;5018985;28;20046;-69
2021/05/13 10:11:18;;;;;;;5.05;1.17;;;16.90;55.70;;;;;;5020231;28;20058;-69
2021/05/13 10:13:44;;;;;;;2.63;1.17;;;16.80;54.50;;;;;;5022990;28;20045;-70
2021/05/13 10:16:10;;;;;;;3.55;1.27;;;17.20;58.30;;;;;;5029107;28;20391;-70
2021/05/13 10:18:43;;;;;;;2.97;1.40;;;17.40;58.60;;;;;;5032805;28;20048;-69
2021/05/13 10:21:09;;;;;;;4.15;1.55;;;17.60;58.90;;;;;;5025027;28;20053;-70
2021/05/13 10:23:40;;;;;;;4.20;1.33;;;17.70;58.10;;;;;;5027594;28;20041;-70
2021/05/13 10:26:07;;;;;;;3.72;1.13;;;17.60;56.00;;;;;;5029660;28;20049;-70
2021/05/13 10:28:33;;;;;;;5.15;1.38;;;17.30;55.60;;;;;;5027967;28;20037;-70
2021/05/13 10:31:02;;;;;;;3.53;1.10;;;16.90;55.80;;;;;;5029622;28;20042;-70
2021/05/13 10:33:47;;;;;;;3.75;1.10;;;17.30;55.70;;;;;;5020024;28;20038;-70
2021/05/13 10:36:19;;;;;;;2.95;1.00;;;17.40;56.90;;;;;;5010202;28;20046;-70
2021/05/13 10:38:47;;;;;;;4.50;1.25;;;17.00;54.90;;;;;;5022807;28;20450;-68
2021/05/13 10:41:28;;;;;;;2.83;1.20;;;16.90;53.00;;;;;;5032990;28;20510;-68
2021/05/13 10:43:54;;;;;;;4.05;1.40;;;16.60;56.90;;;;;;5031122;28;20475;-70
2021/05/13 10:46:30;;;;;;;3.33;1.55;;;17.10;59.80;;;;;;5032968;28;20044;-70
2021/05/13 10:49:15;;;;;;;3.83;1.20;;;17.20;56.60;;;;;;5028026;28;20033;-69
2021/05/13 10:51:43;;;;;;;4.10;1.23;;;17.50;57.70;;;;;;5029399;28;20506;-70
2021/05/13 10:54:09;;;;;;;3.00;1.05;;;17.50;56.10;;;;;;5023458;28;20116;-69
2021/05/13 10:56:37;;;;;;;2.97;1.10;;;17.30;57.60;;;;;;5032621;28;20535;-70
2021/05/13 10:59:22;;;;;;;3.38;1.17;;;17.20;54.30;;;;;;5031380;28;20060;-70
2021/05/13 11:01:49;;;;;;;3.10;1.35;;;17.10;57.10;;;;;;5025754;28;20132;-70
2021/05/13 11:04:24;;;;;;;2.22;1.13;;;17.30;56.50;;;;;;5026514;28;20045;-70
2021/05/13 11:07:01;;;;;;;6.03;1.33;;;17.10;55.90;;;;;;5026310;28;20046;-69
2021/05/13 11:09:44;;;;;;;3.35;1.20;;;17.40;58.50;;;;;;5029709;28;20037;-70
2021/05/13 11:12:14;;;;;;;3.10;1.33;;;17.20;53.20;;;;;;5021987;28;20138;-69
2021/05/13 11:20:52;;;;;;;2.58;1.08;;;17.10;55.90;;;;;;5024189;28;20080;-69
2021/05/13 11:23:29;;;;;;;4.55;1.40;;;17.30;56.00;;;;;;5028986;28;22507;-69
2021/05/13 11:26:02;;;;;;;3.05;1.15;;;17.60;57.70;;;;;;5023972;28;20616;-69
2021/05/13 11:28:31;;;;;;;3.88;1.65;;;17.60;56.00;;;;;;5027771;28;20433;-69
2021/05/13 11:31:08;;;;;;;5.72;1.25;;;17.30;56.60;;;;;;5028874;28;20041;-70
2021/05/13 11:33:52;;;;;;;2.85;1.40;;;17.40;56.70;;;;;;5028182;28;20068;-69
2021/05/13 11:36:20;;;;;;;4.20;1.60;;;17.80;57.50;;;;;;5028960;28;20193;-69
2021/05/13 11:38:54;;;;;;;5.40;1.95;;;17.40;56.20;;;;;;5030862;28;20095;-69
2021/05/13 11:41:19;;;;;;;4.63;1.90;;;17.60;55.30;;;;;;5020665;28;20037;-68
2021/05/13 11:43:45;;;;;;;3.55;1.30;;;17.10;55.70;;;;;;5032066;28;20046;-69
2021/05/13 11:46:15;;;;;;;3.30;1.27;;;17.20;57.40;;;;;;5027437;28;20049;-69
2021/05/13 11:48:42;;;;;;;3.22;1.20;;;17.40;57.80;;;;;;5031118;28;20411;-69
2021/05/13 11:51:12;;;;;;;5.43;1.77;;;17.50;53.80;;;;;;5026129;28;20609;-69
2021/05/13 11:53:45;;;;;;;5.47;1.90;;;17.70;56.30;;;;;;5012147;28;20074;-71
2021/05/13 11:56:14;;;;;;;3.33;1.40;;;17.70;58.90;;;;;;5031000;28;20041;-71
2021/05/13 11:58:48;;;;;;;4.20;1.70;;;17.50;57.40;;;;;;5031876;28;20041;-71
2021/05/13 12:01:16;;;;;;;5.72;1.70;;;17.30;55.90;;;;;;5025123;28;20036;-70
2021/05/13 12:03:43;;;;;;;5.65;1.52;;;17.40;56.70;;;;;;5018566;28;20038;-71
2021/05/13 12:06:10;;;;;;;5.80;2.10;;;17.40;57.60;;;;;;5017233;28;20096;-71
2021/05/13 12:08:37;;;;;;;5.05;1.77;;;17.70;56.70;;;;;;5031624;28;20037;-71
2021/05/13 12:11:16;;;;;;;5.10;1.70;;;17.50;56.90;;;;;;5031679;28;20386;-71
2021/05/13 12:13:42;;;;;;;3.60;1.70;;;17.40;55.40;;;;;;5030541;28;20498;-71
2021/05/13 12:16:07;;;;;;;5.38;1.70;;;17.40;57.60;;;;;;5030858;28;20120;-71
2021/05/13 12:18:35;;;;;;;4.88;1.80;;;17.50;58.60;;;;;;5031311;28;20052;-71
2021/05/13 12:21:01;;;;;;;6.82;2.40;;;17.60;57.80;;;;;;5031222;28;20522;-71
2021/05/13 12:23:27;;;;;;;4.18;1.90;;;17.50;58.40;;;;;;5030674;28;20033;-71
2021/05/13 12:25:52;;;;;;;5.90;2.20;;;17.80;58.80;;;;;;5031294;28;20041;-71
2021/05/13 12:28:19;;;;;;;4.28;1.67;;;17.50;55.50;;;;;;5028049;28;20045;-70
2021/05/13 12:30:55;;;;;;;6.00;2.67;;;17.40;56.60;;;;;;5031072;28;20471;-71
2021/05/13 12:33:25;;;;;;;80.30;7.72;;;17.80;58.60;;;;;;5031040;28;20544;-69
2021/05/13 12:35:52;;;;;;;5.45;2.35;;;18.00;58.30;;;;;;5037431;28;20041;-70
2021/05/13 12:38:23;;;;;;;5.72;2.35;;;17.70;56.70;;;;;;5035988;28;20049;-69
2021/05/13 12:41:16;;;;;;;5.03;2.40;;;17.50;59.20;;;;;;5022162;28;20052;-70
2021/05/13 12:43:43;;;;;;;6.60;2.78;;;17.50;58.00;;;;;;5029426;28;20045;-69
2021/05/13 12:46:18;;;;;;;4.78;2.22;;;17.60;58.40;;;;;;5030997;28;20057;-69
2021/05/13 12:48:45;;;;;;;3.80;2.20;;;17.40;56.20;;;;;;5030619;28;20079;-70
2021/05/13 12:51:20;;;;;;;4.65;1.70;;;17.10;57.70;;;;;;5029724;28;20053;-69
2021/05/13 12:53:50;;;;;;;3.58;1.75;;;17.10;58.00;;;;;;5030636;28;20402;-69
2021/05/13 12:56:33;;;;;;;5.47;2.17;;;17.50;58.30;;;;;;5030444;28;20554;-69
2021/05/13 12:59:10;;;;;;;2.70;1.85;;;17.60;57.80;;;;;;5030636;28;20042;-69
2021/05/13 13:01:41;;;;;;;5.53;2.00;;;17.40;58.50;;;;;;5030129;28;20029;-69